createdAt,value
2023-11-18T00:00:56.482Z,92.87
2023-11-18T00:03:23.127Z,92.93
2023-11-18T00:05:49.674Z,93.13
2023-11-18T00:08:16.164Z,93.26
2023-11-18T00:10:42.596Z,93.86
2023-11-18T00:13:09.987Z,92.74
2023-11-18T00:15:37.028Z,93.06
2023-11-18T00:18:03.702Z,93.24
2023-11-18T00:20:32.024Z,94.13
2023-11-18T00:22:58.917Z,93.77
2023-11-18T00:25:25.502Z,93.63
2023-11-18T00:27:51.968Z,94.29
2023-11-18T00:30:18.642Z,94.10
2023-11-18T00:32:45.432Z,93.97
2023-11-18T00:35:12.180Z,93.72
2023-11-18T00:37:38.619Z,94.41
2023-11-18T00:40:05.756Z,94.79
2023-11-18T00:42:32.247Z,94.20
2023-11-18T00:44:58.774Z,94.39
2023-11-18T00:47:25.319Z,94.78
2023-11-18T00:49:53.711Z,94.61
2023-11-18T00:52:20.457Z,94.93
2023-11-18T00:54:46.948Z,95.04
2023-11-18T00:57:13.485Z,94.50
2023-11-18T00:59:43.922Z,96.01
2023-11-18T01:02:10.475Z,96.46
2023-11-18T01:04:36.976Z,95.33
2023-11-18T01:07:03.876Z,94.82
2023-11-18T01:09:30.345Z,94.45
2023-11-18T01:12:07.767Z,93.44
2023-11-18T01:14:35.703Z,94.49
2023-11-18T01:17:02.364Z,95.27
2023-11-18T01:19:29.480Z,94.99
2023-11-18T01:21:56.701Z,95.34
2023-11-18T01:24:23.225Z,94.51
2023-11-18T01:26:49.775Z,94.44
2023-11-18T01:29:16.345Z,94.44
2023-11-18T01:31:50.412Z,94.89
2023-11-18T01:34:22.630Z,94.76
2023-11-18T01:36:52.913Z,94.96
2023-11-18T01:39:19.629Z,95.61
2023-11-18T01:41:46.741Z,95.73
2023-11-18T01:44:16.287Z,95.98
2023-11-18T01:46:46.161Z,96.19
2023-11-18T01:49:16.807Z,95.98
2023-11-18T01:51:46.504Z,96.44
2023-11-18T01:54:16.623Z,96.20
2023-11-18T01:56:45.649Z,96.09
2023-11-18T01:59:18.998Z,96.24
2023-11-18T02:01:55.317Z,96.37
2023-11-18T02:04:22.774Z,96.11
2023-11-18T02:06:50.335Z,96.00
2023-11-18T02:09:25.077Z,96.16
2023-11-18T02:12:10.859Z,96.33
2023-11-18T02:14:40.795Z,96.39
2023-11-18T02:17:11.588Z,96.58
2023-11-18T02:19:40.537Z,96.59
2023-11-18T02:22:08.522Z,97.04
2023-11-18T02:24:38.095Z,96.86
2023-11-18T02:27:12.551Z,97.16
2023-11-18T02:29:46.207Z,96.85
2023-11-18T02:32:18.719Z,97.00
2023-11-18T02:35:06.845Z,97.12
2023-11-18T02:37:34.293Z,96.87
2023-11-18T02:40:15.741Z,96.75
2023-11-18T02:42:45.070Z,96.58
2023-11-18T02:45:17.894Z,96.56
2023-11-18T02:47:46.169Z,96.44
2023-11-18T02:50:14.632Z,96.46
2023-11-18T02:52:41.485Z,97.33
2023-11-18T02:55:09.553Z,97.17
2023-11-18T02:57:37.511Z,97.55
2023-11-18T03:00:12.491Z,97.14
2023-11-18T03:02:40.535Z,97.74
2023-11-18T03:05:08.765Z,97.36
2023-11-18T03:07:35.382Z,97.53
2023-11-18T03:10:01.919Z,97.43
2023-11-18T03:12:29.199Z,97.70
2023-11-18T03:14:56.262Z,97.36
2023-11-18T03:17:22.974Z,97.42
2023-11-18T03:19:51.483Z,97.06
2023-11-18T03:22:18.055Z,97.27
2023-11-18T03:24:44.518Z,97.67
2023-11-18T03:27:10.941Z,97.43
2023-11-18T03:29:37.360Z,97.13
2023-11-18T03:32:06.304Z,97.40
2023-11-18T03:34:33.463Z,97.56
2023-11-18T03:37:00.316Z,97.37
2023-11-18T03:39:28.423Z,97.11
2023-11-18T03:41:55.055Z,97.35
2023-11-18T03:44:21.577Z,97.40
2023-11-18T03:46:48.089Z,97.55
2023-11-18T03:49:14.681Z,97.32
2023-11-18T03:51:41.198Z,98.17
2023-11-18T03:54:09.707Z,98.28
2023-11-18T03:56:36.262Z,97.82
2023-11-18T03:59:05.338Z,98.06
2023-11-18T04:01:33.628Z,98.28
2023-11-18T04:04:00.421Z,97.98
2023-11-18T04:06:26.915Z,97.99
2023-11-18T04:08:53.528Z,98.08
2023-11-18T04:11:19.992Z,97.68
2023-11-18T04:13:46.455Z,97.85
2023-11-18T04:16:16.990Z,98.22
2023-11-18T04:18:44.693Z,98.09
2023-11-18T04:21:11.976Z,98.66
2023-11-18T04:23:43.351Z,98.63
2023-11-18T04:26:10.935Z,98.09
2023-11-18T04:28:37.874Z,97.79
2023-11-18T04:31:06.250Z,97.59
2023-11-18T04:33:33.483Z,97.93
2023-11-18T04:36:00.401Z,97.32
2023-11-18T04:38:27.708Z,97.83
2023-11-18T04:40:55.399Z,98.08
2023-11-18T04:43:31.076Z,97.37
2023-11-18T04:46:07.049Z,97.98
2023-11-18T04:48:34.287Z,97.99
2023-11-18T04:51:01.518Z,98.28
2023-11-18T04:53:27.984Z,97.96
2023-11-18T04:55:54.566Z,98.13
2023-11-18T04:58:21.937Z,97.43
2023-11-18T05:00:49.253Z,97.60
2023-11-18T05:03:17.774Z,98.16
2023-11-18T05:05:44.784Z,98.07
2023-11-18T05:08:21.692Z,98.58
2023-11-18T05:10:49.648Z,98.07
2023-11-18T05:13:17.578Z,98.51
2023-11-18T05:15:46.303Z,98.29
2023-11-18T05:18:15.835Z,97.99
2023-11-18T05:20:43.305Z,98.04
2023-11-18T05:23:12.993Z,97.78
2023-11-18T05:25:46.969Z,98.65
2023-11-18T05:28:14.547Z,98.11
2023-11-18T05:30:44.230Z,98.38
2023-11-18T05:33:16.031Z,97.77
2023-11-18T05:35:49.622Z,98.48
2023-11-18T05:38:19.496Z,98.62
2023-11-18T05:40:56.840Z,98.28
2023-11-18T05:43:26.916Z,98.31
2023-11-18T05:46:12.045Z,99.21
2023-11-18T05:48:38.775Z,99.13
2023-11-18T05:51:10.940Z,99.03
2023-11-18T05:53:42.532Z,98.21
2023-11-18T05:56:09.284Z,98.70
2023-11-18T05:58:35.810Z,98.66
2023-11-18T06:01:03.355Z,98.52
2023-11-18T06:03:29.957Z,98.17
2023-11-18T06:05:57.243Z,98.66
2023-11-18T06:08:24.071Z,98.49
2023-11-18T06:10:52.868Z,98.56
2023-11-18T06:13:19.391Z,98.18
2023-11-18T06:15:45.843Z,98.37
2023-11-18T06:18:12.337Z,98.06
2023-11-18T06:20:39.445Z,98.47
2023-11-18T06:23:06.148Z,98.05
2023-11-18T06:25:32.833Z,98.31
2023-11-18T06:27:59.354Z,98.37
2023-11-18T06:30:27.157Z,97.97
2023-11-18T06:32:53.780Z,98.08
2023-11-18T06:35:22.526Z,97.94
2023-11-18T06:37:49.042Z,97.59
2023-11-18T06:40:19.951Z,97.22
2023-11-18T06:42:48.377Z,98.31
2023-11-18T06:45:16.115Z,97.78
2023-11-18T06:47:45.719Z,97.74
2023-11-18T06:50:15.425Z,97.81
2023-11-18T06:52:47.732Z,97.44
2023-11-18T06:55:16.361Z,97.26
2023-11-18T06:57:44.278Z,97.96
2023-11-18T07:00:15.002Z,97.83
2023-11-18T07:02:41.532Z,97.02
2023-11-18T07:05:08.349Z,97.42
2023-11-18T07:07:34.883Z,97.37
2023-11-18T07:10:01.328Z,97.30
2023-11-18T07:12:28.134Z,97.65
2023-11-18T07:14:55.128Z,97.10
2023-11-18T07:17:21.584Z,97.45
2023-11-18T07:19:48.060Z,97.40
2023-11-18T07:22:15.862Z,96.73
2023-11-18T07:24:42.274Z,97.34
2023-11-18T07:27:12.344Z,96.93
2023-11-18T07:29:38.791Z,96.76
2023-11-18T07:32:06.755Z,97.14
2023-11-18T07:34:36.582Z,97.18
2023-11-18T07:37:03.247Z,96.65
2023-11-18T07:39:45.098Z,96.94
2023-11-18T07:42:12.874Z,97.37
2023-11-18T07:44:42.427Z,96.68
2023-11-18T07:47:08.935Z,96.82
2023-11-18T07:49:36.676Z,96.71
2023-11-18T07:52:04.200Z,96.23
2023-11-18T07:54:30.777Z,96.53
2023-11-18T07:56:58.308Z,96.67
2023-11-18T07:59:25.090Z,97.07
2023-11-18T08:01:51.730Z,96.99
2023-11-18T08:04:21.890Z,96.81
2023-11-18T08:06:49.040Z,96.77
2023-11-18T08:09:15.803Z,97.24
2023-11-18T08:11:42.384Z,97.02
2023-11-18T08:14:09.244Z,97.45
2023-11-18T08:16:35.795Z,97.07
2023-11-18T08:19:06.974Z,97.26
2023-11-18T08:21:34.396Z,97.44
2023-11-18T08:24:01.393Z,97.80
2023-11-18T08:26:27.842Z,96.99
2023-11-18T08:28:54.736Z,97.28
2023-11-18T08:31:22.270Z,98.01
2023-11-18T08:33:48.835Z,97.48
2023-11-18T08:36:15.336Z,97.82
2023-11-18T08:38:45.108Z,97.41
2023-11-18T08:41:12.494Z,97.69
2023-11-18T08:43:42.024Z,97.99
2023-11-18T08:46:08.679Z,97.57
2023-11-18T08:48:35.293Z,97.78
2023-11-18T08:51:02.693Z,97.90
2023-11-18T08:53:29.143Z,97.49
2023-11-18T08:55:56.139Z,96.87
2023-11-18T08:58:23.779Z,97.81
2023-11-18T09:00:56.025Z,97.64
2023-11-18T09:03:36.045Z,97.45
2023-11-18T09:06:18.401Z,97.28
2023-11-18T09:08:46.971Z,97.78
2023-11-18T09:11:21.042Z,97.21
2023-11-18T09:13:50.834Z,96.88
2023-11-18T09:16:17.407Z,97.11
2023-11-18T09:18:47.763Z,96.80
2023-11-18T09:21:20.481Z,97.63
2023-11-18T09:23:49.019Z,96.41
2023-11-18T09:26:16.252Z,96.68
2023-11-18T09:28:43.430Z,96.74
2023-11-18T09:31:13.182Z,96.68
2023-11-18T09:33:45.971Z,96.61
2023-11-18T09:36:13.590Z,97.04
2023-11-18T09:38:45.993Z,96.81
2023-11-18T09:41:14.285Z,97.11
2023-11-18T09:43:48.235Z,96.70
2023-11-18T09:46:16.858Z,97.31
2023-11-18T09:48:48.668Z,97.86
2023-11-18T09:51:22.176Z,97.11
2023-11-18T09:53:51.643Z,97.56
2023-11-18T09:56:39.743Z,97.41
2023-11-18T09:59:17.236Z,97.67
2023-11-18T10:01:47.975Z,97.51
2023-11-18T10:04:19.282Z,97.71
2023-11-18T10:06:48.163Z,98.01
2023-11-18T10:09:18.560Z,98.64
2023-11-18T10:11:48.033Z,98.61
2023-11-18T10:14:18.298Z,98.32
2023-11-18T10:16:48.972Z,98.96
2023-11-18T10:19:19.217Z,99.08
2023-11-18T10:21:49.661Z,98.72
2023-11-18T10:24:20.326Z,99.22
2023-11-18T10:26:55.429Z,99.05
2023-11-18T10:29:22.046Z,99.50
2023-11-18T10:31:48.604Z,99.96
2023-11-18T10:34:16.980Z,99.09
2023-11-18T10:37:01.191Z,99.17
2023-11-18T10:39:36.245Z,99.70
2023-11-18T10:42:04.206Z,99.80
2023-11-18T10:44:30.800Z,100.00
2023-11-18T10:46:59.873Z,100.00
2023-11-18T10:49:30.528Z,100.00
2023-11-18T10:52:03.486Z,100.00
2023-11-18T10:54:33.135Z,100.00
2023-11-18T10:57:08.335Z,100.00
2023-11-18T10:59:34.804Z,100.00
2023-11-18T11:02:02.809Z,100.00
2023-11-18T11:04:44.216Z,100.00
2023-11-18T11:07:12.103Z,100.00
2023-11-18T11:09:43.080Z,100.00
2023-11-18T11:12:17.855Z,100.00
2023-11-18T11:14:55.669Z,100.00
2023-11-18T11:17:32.001Z,100.00
2023-11-18T11:19:59.206Z,100.00
2023-11-18T11:22:36.334Z,100.00
2023-11-18T11:25:25.912Z,100.00
2023-11-18T11:28:03.221Z,100.00
2023-11-18T11:30:33.011Z,100.00
2023-11-18T11:33:43.133Z,100.00
2023-11-18T11:36:18.614Z,100.00
2023-11-18T11:38:47.709Z,100.00
2023-11-18T11:41:20.706Z,100.00
2023-11-18T11:43:49.312Z,100.00
2023-11-18T11:46:24.134Z,100.00
2023-11-18T11:48:54.308Z,100.00
2023-11-18T11:51:31.197Z,100.00
2023-11-18T11:54:20.055Z,100.00
2023-11-18T11:57:02.677Z,100.00
2023-11-18T11:59:53.996Z,100.00
2023-11-18T12:02:29.898Z,100.00
2023-11-18T12:04:59.393Z,100.00
2023-11-18T12:07:28.309Z,100.00
2023-11-18T12:09:59.270Z,100.00
2023-11-18T12:12:31.561Z,100.00
2023-11-18T12:15:13.486Z,100.00
2023-11-18T12:17:52.074Z,100.00
2023-11-18T12:20:43.740Z,100.00
2023-11-18T12:23:16.784Z,100.00
2023-11-18T12:25:44.103Z,100.00
2023-11-18T12:28:12.671Z,100.00
2023-11-18T12:30:42.484Z,100.00
2023-11-18T12:33:19.160Z,100.00
2023-11-18T12:35:51.734Z,100.00
2023-11-18T12:38:46.484Z,100.00
2023-11-18T12:41:41.001Z,100.00
2023-11-18T12:44:27.458Z,100.00
2023-11-18T12:47:16.408Z,100.00
2023-11-18T12:49:43.461Z,100.00
2023-11-18T12:52:12.261Z,100.00
2023-11-18T12:54:39.288Z,100.00
2023-11-18T12:57:08.092Z,100.00
2023-11-18T12:59:38.759Z,100.00
2023-11-18T13:02:09.272Z,100.00
2023-11-18T13:04:35.976Z,100.00
2023-11-18T13:07:04.399Z,100.00
2023-11-18T13:09:33.348Z,100.00
2023-11-18T13:12:05.885Z,100.00
2023-11-18T13:14:37.971Z,100.00
2023-11-18T13:17:09.850Z,100.00
2023-11-18T13:19:36.482Z,100.00
2023-11-18T13:22:09.977Z,100.00
2023-11-18T13:24:41.937Z,100.00
2023-11-18T13:27:10.237Z,100.00
2023-11-18T13:29:40.567Z,100.00
2023-11-18T13:32:08.284Z,100.00
2023-11-18T13:34:36.779Z,100.00
2023-11-18T13:37:04.286Z,100.00
2023-11-18T13:39:32.443Z,100.00
2023-11-18T13:42:00.036Z,100.00
2023-11-18T13:44:40.636Z,100.00
2023-11-18T13:47:07.090Z,100.00
2023-11-18T13:49:35.621Z,100.00
2023-11-18T13:52:03.098Z,100.00
2023-11-18T13:54:32.387Z,100.00
2023-11-18T13:57:06.885Z,100.00
2023-11-18T13:59:33.423Z,100.00
2023-11-18T14:02:03.359Z,100.00
2023-11-18T14:04:30.933Z,100.00
2023-11-18T14:07:06.577Z,100.00
2023-11-18T14:09:40.769Z,100.00
2023-11-18T14:12:09.649Z,100.00
2023-11-18T14:14:36.297Z,100.00
2023-11-18T14:17:02.886Z,100.00
2023-11-18T14:19:30.207Z,100.00
2023-11-18T14:21:57.052Z,100.00
2023-11-18T14:24:24.178Z,100.00
2023-11-18T14:26:51.452Z,100.00
2023-11-18T14:29:17.912Z,100.00
2023-11-18T14:31:46.055Z,100.00
2023-11-18T14:34:12.527Z,100.00
2023-11-18T14:36:39.540Z,100.00
2023-11-18T14:39:06.385Z,100.00
2023-11-18T14:41:32.904Z,100.00
2023-11-18T14:43:59.566Z,100.00
2023-11-18T14:46:26.070Z,100.00
2023-11-18T14:48:52.868Z,100.00
2023-11-18T14:51:19.394Z,100.00
2023-11-18T14:53:45.813Z,100.00
2023-11-18T14:56:12.428Z,100.00
2023-11-18T14:58:38.955Z,100.00
2023-11-18T15:01:08.041Z,100.00
2023-11-18T15:03:36.243Z,100.00
2023-11-18T15:06:03.185Z,100.00
2023-11-18T15:08:31.746Z,100.00
2023-11-18T15:11:01.985Z,100.00
2023-11-18T15:13:28.529Z,100.00
2023-11-18T15:15:56.077Z,100.00
2023-11-18T15:18:22.707Z,100.00
2023-11-18T15:20:50.087Z,100.00
2023-11-18T15:23:18.623Z,100.00
2023-11-18T15:25:45.681Z,100.00
2023-11-18T15:28:12.830Z,100.00
2023-11-18T15:30:40.600Z,100.00
2023-11-18T15:33:10.741Z,100.00
2023-11-18T15:35:42.326Z,100.00
2023-11-18T15:38:12.577Z,100.00
2023-11-18T15:40:39.063Z,100.00
2023-11-18T15:43:06.888Z,100.00
2023-11-18T15:45:36.444Z,100.00
2023-11-18T15:48:06.249Z,100.00
2023-11-18T15:50:33.346Z,100.00
2023-11-18T15:52:59.870Z,100.00
2023-11-18T15:55:26.397Z,100.00
2023-11-18T15:57:53.983Z,100.00
2023-11-18T16:00:23.017Z,100.00
2023-11-18T16:03:01.791Z,100.00
2023-11-18T16:05:34.301Z,100.00
2023-11-18T16:08:05.353Z,100.00
2023-11-18T16:10:32.487Z,100.00
2023-11-18T16:12:59.821Z,100.00
2023-11-18T16:15:28.396Z,100.00
2023-11-18T16:17:58.063Z,100.00
2023-11-18T16:20:28.276Z,100.00
2023-11-18T16:22:56.158Z,100.00
2023-11-18T16:25:25.037Z,100.00
2023-11-18T16:27:52.981Z,100.00
2023-11-18T16:30:25.625Z,100.00
2023-11-18T16:32:52.957Z,100.00
2023-11-18T16:35:21.223Z,100.00
2023-11-18T16:37:48.586Z,100.00
2023-11-18T16:40:15.940Z,100.00
2023-11-18T16:42:47.858Z,100.00
2023-11-18T16:45:15.963Z,100.00
2023-11-18T16:47:43.634Z,100.00
2023-11-18T16:50:15.249Z,100.00
2023-11-18T16:52:41.819Z,100.00
2023-11-18T16:55:12.979Z,100.00
2023-11-18T16:57:40.038Z,100.00
2023-11-18T17:00:18.512Z,100.00
2023-11-18T17:02:46.470Z,100.00
2023-11-18T17:05:13.372Z,100.00
2023-11-18T17:07:39.951Z,100.00
2023-11-18T17:10:12.390Z,100.00
2023-11-18T17:12:52.690Z,100.00
2023-11-18T17:15:19.645Z,100.00
2023-11-18T17:17:48.062Z,100.00
2023-11-18T17:20:16.136Z,100.00
2023-11-18T17:22:43.635Z,100.00
2023-11-18T17:25:16.783Z,100.00
2023-11-18T17:27:44.678Z,100.00
2023-11-18T17:30:19.035Z,100.00
2023-11-18T17:32:47.625Z,100.00
2023-11-18T17:35:15.985Z,100.00
2023-11-18T17:37:44.497Z,100.00
2023-11-18T17:40:12.215Z,100.00
2023-11-18T17:42:43.050Z,100.00
2023-11-18T17:45:10.943Z,100.00
2023-11-18T17:47:43.144Z,100.00
2023-11-18T17:50:15.282Z,100.00
2023-11-18T17:52:45.123Z,100.00
2023-11-18T17:55:18.624Z,100.00
2023-11-18T17:57:45.651Z,100.00
2023-11-18T18:00:13.936Z,100.00
2023-11-18T18:02:41.565Z,100.00
2023-11-18T18:05:09.403Z,100.00
2023-11-18T18:07:35.858Z,100.00
2023-11-18T18:10:02.670Z,100.00
2023-11-18T18:12:29.326Z,100.00
2023-11-18T18:14:56.822Z,100.00
2023-11-18T18:17:23.434Z,100.00
2023-11-18T18:19:49.944Z,100.00
2023-11-18T18:22:16.430Z,100.00
2023-11-18T18:24:43.108Z,100.00
2023-11-18T18:27:09.665Z,100.00
2023-11-18T18:29:36.263Z,100.00
2023-11-18T18:32:03.334Z,100.00
2023-11-18T18:34:31.463Z,100.00
2023-11-18T18:36:57.930Z,100.00
2023-11-18T18:39:25.449Z,100.00
2023-11-18T18:41:51.888Z,100.00
2023-11-18T18:44:18.810Z,100.00
2023-11-18T18:46:45.555Z,100.00
2023-11-18T18:49:12.480Z,100.00
2023-11-18T18:51:39.897Z,100.00
2023-11-18T18:54:06.397Z,100.00
2023-11-18T18:56:32.797Z,100.00
2023-11-18T18:58:59.495Z,100.00
2023-11-18T19:01:27.642Z,100.00
2023-11-18T19:03:54.458Z,100.00
2023-11-18T19:06:21.129Z,100.00
2023-11-18T19:08:47.645Z,100.00
2023-11-18T19:11:14.242Z,100.00
2023-11-18T19:13:42.436Z,100.00
2023-11-18T19:16:10.710Z,100.00
2023-11-18T19:18:38.308Z,100.00
2023-11-18T19:21:05.229Z,100.00
2023-11-18T19:23:31.770Z,100.00
2023-11-18T19:25:58.291Z,100.00
2023-11-18T19:28:24.797Z,100.00
2023-11-18T19:30:51.305Z,100.00
2023-11-18T19:33:17.826Z,100.00
2023-11-18T19:35:44.401Z,100.00
2023-11-18T19:38:10.888Z,100.00
2023-11-18T19:40:37.391Z,100.00
2023-11-18T19:43:03.871Z,100.00
2023-11-18T19:45:30.402Z,100.00
2023-11-18T19:47:56.951Z,100.00
2023-11-18T19:52:52.804Z,100.00
2023-11-18T19:55:19.816Z,100.00
2023-11-18T19:57:47.822Z,100.00
2023-11-18T20:00:18.154Z,100.00
2023-11-18T20:02:46.117Z,100.00
2023-11-18T20:05:13.877Z,100.00
2023-11-18T20:07:40.536Z,100.00
2023-11-18T20:10:09.299Z,100.00
2023-11-18T20:12:36.230Z,100.00
2023-11-18T20:15:03.320Z,100.00
2023-11-18T20:17:29.854Z,100.00
2023-11-18T20:19:56.298Z,100.00
2023-11-18T20:22:22.708Z,100.00
2023-11-18T20:24:49.293Z,100.00
2023-11-18T20:27:15.715Z,100.00
2023-11-18T20:29:42.182Z,100.00
2023-11-18T20:32:09.211Z,100.00
2023-11-18T20:34:35.858Z,100.00
2023-11-18T20:37:02.382Z,100.00
2023-11-18T20:39:28.939Z,100.00
2023-11-18T20:41:55.575Z,100.00
2023-11-18T20:44:22.445Z,100.00
2023-11-18T20:46:50.992Z,100.00
2023-11-18T20:49:18.631Z,100.00
2023-11-18T20:51:45.575Z,100.00
2023-11-18T20:54:12.044Z,100.00
2023-11-18T20:56:38.619Z,100.00
2023-11-18T20:59:05.236Z,100.00
2023-11-18T21:01:31.809Z,100.00
2023-11-18T21:03:58.372Z,100.00
2023-11-18T21:06:25.074Z,100.00
2023-11-18T21:08:51.633Z,100.00
2023-11-18T21:11:18.624Z,100.00
2023-11-18T21:13:45.148Z,100.00
2023-11-18T21:16:13.680Z,100.00
2023-11-18T21:18:40.144Z,100.00
2023-11-18T21:21:06.783Z,100.00
2023-11-18T21:23:33.223Z,100.00
2023-11-18T21:25:59.760Z,100.00
2023-11-18T21:28:26.257Z,100.00
2023-11-18T21:30:53.740Z,100.00
2023-11-18T21:33:22.271Z,100.00
2023-11-18T21:35:49.142Z,100.00
2023-11-18T21:38:15.808Z,100.00
2023-11-18T21:40:42.337Z,100.00
2023-11-18T21:43:09.225Z,100.00
2023-11-18T21:45:38.633Z,100.00
2023-11-18T21:48:06.038Z,100.00
2023-11-18T21:50:34.492Z,100.00
2023-11-18T21:53:02.892Z,100.00
2023-11-18T21:55:29.680Z,100.00
2023-11-18T21:57:56.147Z,100.00
2023-11-18T22:00:22.621Z,100.00
2023-11-18T22:02:49.306Z,100.00
2023-11-18T22:05:16.178Z,100.00
2023-11-18T22:07:43.109Z,100.00
2023-11-18T22:10:18.588Z,100.00
2023-11-18T22:12:45.760Z,100.00
2023-11-18T22:15:17.925Z,100.00
2023-11-18T22:17:45.035Z,100.00
2023-11-18T22:20:14.175Z,100.00
2023-11-18T22:22:42.104Z,100.00
2023-11-18T22:25:09.691Z,100.00
2023-11-18T22:27:41.045Z,100.00
2023-11-18T22:30:09.333Z,100.00
2023-11-18T22:32:38.911Z,100.00
2023-11-18T22:35:08.066Z,100.00
2023-11-18T22:37:35.851Z,100.00
2023-11-18T22:40:09.471Z,100.00
2023-11-18T22:42:38.019Z,100.00
2023-11-18T22:45:05.487Z,100.00
2023-11-18T22:47:32.062Z,100.00
2023-11-18T22:49:58.653Z,100.00
2023-11-18T22:52:26.860Z,100.00
2023-11-18T22:54:53.398Z,100.00
2023-11-18T22:57:20.474Z,100.00
2023-11-18T22:59:47.497Z,100.00
2023-11-18T23:02:17.252Z,100.00
2023-11-18T23:04:46.192Z,100.00
2023-11-18T23:07:13.241Z,100.00
2023-11-18T23:09:39.764Z,100.00
2023-11-18T23:12:07.221Z,100.00
2023-11-18T23:14:33.994Z,100.00
2023-11-18T23:17:08.143Z,100.00
2023-11-18T23:19:41.702Z,100.00
2023-11-18T23:22:14.775Z,100.00
2023-11-18T23:24:41.265Z,100.00
2023-11-18T23:27:08.104Z,100.00
2023-11-18T23:29:34.740Z,100.00
2023-11-18T23:32:01.382Z,100.00
2023-11-18T23:34:27.837Z,100.00
2023-11-18T23:36:54.426Z,100.00
2023-11-18T23:39:26.956Z,100.00
2023-11-18T23:41:53.555Z,100.00
2023-11-18T23:44:20.015Z,100.00
2023-11-18T23:46:46.518Z,100.00
2023-11-18T23:49:13.531Z,100.00
2023-11-18T23:51:40.147Z,100.00
2023-11-18T23:54:06.761Z,100.00
2023-11-18T23:56:33.239Z,100.00
2023-11-18T23:58:59.719Z,100.00
